San Isabel, Colorado
Current Conditions -  °F | °C
As of 2:53 AM on Friday 24 Oct 2014 (Local Time) from KPUB Reporting Station
Clear Clear  
Wind Chill: 45°   Ceiling: Unl
Heat Index: 45°   Visibility: 10mi
Dew Point: 34°   Wind: 3mph
Humidity: 65%   Direction: NA
Pressure: 30.15"   Gusts: NA
Location:  37.9584°N, 104.823°W
Report Text: KPUB 240853Z AUTO VRB03KT 10SM CLR 07/01 A3015 RMK AO2 SLP170 T00720011 53002
Loading
Personal Weather Stations






























Interactive Weather Map
Tropical Storm Tracking
New forecast layout! Learn more

10-Day Weather Forecast

Advertisements
Track Severe Weather on mobile